createdAt,value
2022-10-18T03:57:25.640Z,80.75
2022-10-18T04:00:28.121Z,80.75
2022-10-18T04:03:30.394Z,82.28
2022-10-18T04:06:32.420Z,82.19
2022-10-18T04:09:34.709Z,82.04
2022-10-18T04:12:36.785Z,82.04
2022-10-18T04:15:39.198Z,82.22
2022-10-18T04:18:41.385Z,81.96
2022-10-18T04:21:43.685Z,81.74
2022-10-18T04:24:45.725Z,81.93
2022-10-18T04:27:48.045Z,81.30
2022-10-18T04:30:53.526Z,81.36
2022-10-18T04:33:55.818Z,81.39
2022-10-18T04:36:57.870Z,80.53
2022-10-18T04:40:00.183Z,79.98
2022-10-18T04:43:02.302Z,80.01
2022-10-18T04:46:04.646Z,80.15
2022-10-18T04:49:06.689Z,80.18
2022-10-18T04:52:09.294Z,80.44
2022-10-18T04:55:11.308Z,80.06
2022-10-18T04:58:13.686Z,80.09
2022-10-18T05:01:17.066Z,80.24
2022-10-18T05:04:19.461Z,79.96
2022-10-18T05:07:21.483Z,79.83
2022-10-18T05:10:23.766Z,79.68
2022-10-18T05:13:26.320Z,80.00
2022-10-18T05:16:28.735Z,79.92
2022-10-18T05:19:30.810Z,79.40
2022-10-18T05:22:33.377Z,79.62
2022-10-18T05:25:38.713Z,79.99
2022-10-18T05:28:41.587Z,79.95
2022-10-18T05:31:43.732Z,80.00
2022-10-18T05:34:46.051Z,79.81
2022-10-18T05:40:50.650Z,80.11
2022-10-18T05:43:52.710Z,80.85
2022-10-18T05:46:55.017Z,80.80
2022-10-18T05:49:57.458Z,80.68
2022-10-18T05:53:11.851Z,80.55
2022-10-18T05:56:14.569Z,81.18
2022-10-18T05:59:16.869Z,81.28
2022-10-18T06:02:19.157Z,80.85
2022-10-18T06:05:21.672Z,81.44
2022-10-18T06:08:23.760Z,81.91
2022-10-18T06:11:26.446Z,81.84
2022-10-18T06:14:28.477Z,81.25
2022-10-18T06:17:32.614Z,81.72
2022-10-18T06:20:34.869Z,82.42
2022-10-18T06:23:37.207Z,83.17
2022-10-18T06:26:39.293Z,82.64
2022-10-18T06:29:41.639Z,82.44
2022-10-18T06:32:43.732Z,82.60
2022-10-18T06:36:07.069Z,82.62
2022-10-18T06:39:10.490Z,82.33
2022-10-18T06:42:12.762Z,81.94
2022-10-18T06:45:15.897Z,82.17
2022-10-18T06:51:22.275Z,82.82
2022-10-18T06:54:24.573Z,84.15
2022-10-18T06:57:26.706Z,84.10
2022-10-18T07:00:29.070Z,84.87
2022-10-18T07:03:31.138Z,82.43
2022-10-18T07:06:33.459Z,82.49
2022-10-18T07:09:35.835Z,80.07
2022-10-18T07:12:40.461Z,81.52
2022-10-18T07:15:42.693Z,80.11
2022-10-18T07:18:49.163Z,80.48
2022-10-18T07:21:51.193Z,75.03
2022-10-18T07:24:53.637Z,76.42
2022-10-18T07:27:55.929Z,76.37
2022-10-18T07:31:06.106Z,75.28
2022-10-18T07:34:12.213Z,75.20
2022-10-18T07:37:14.514Z,74.38
2022-10-18T07:40:16.685Z,71.81
2022-10-18T07:43:18.957Z,72.37
2022-10-18T07:46:22.179Z,68.27
2022-10-18T07:49:24.508Z,68.77
2022-10-18T07:52:26.539Z,69.72
2022-10-18T07:55:28.839Z,69.06
2022-10-18T07:58:32.584Z,65.87
2022-10-18T08:01:34.948Z,66.24
2022-10-18T08:04:37.350Z,66.19
2022-10-18T08:07:39.587Z,66.00
2022-10-18T08:10:41.989Z,67.54
2022-10-18T08:13:46.000Z,67.24
2022-10-18T08:16:48.303Z,66.24
2022-10-18T08:20:04.662Z,67.52
2022-10-18T08:23:12.872Z,66.95
2022-10-18T08:26:17.467Z,66.21
2022-10-18T08:29:26.732Z,66.22
2022-10-18T08:32:31.156Z,64.10
2022-10-18T08:35:33.774Z,59.93
2022-10-18T08:38:37.225Z,59.90
2022-10-18T08:42:06.341Z,60.32
2022-10-18T08:45:17.728Z,60.67
2022-10-18T08:48:49.448Z,62.25
2022-10-18T08:51:52.336Z,61.02
2022-10-18T08:55:29.784Z,61.17
2022-10-18T08:58:33.630Z,60.60
2022-10-18T09:01:52.517Z,59.08
2022-10-18T09:05:01.313Z,58.36
2022-10-18T09:08:21.935Z,58.78
2022-10-18T09:11:38.007Z,58.73
2022-10-18T09:15:19.237Z,59.54
2022-10-18T09:18:48.122Z,58.00
2022-10-18T09:21:55.594Z,56.79
2022-10-18T09:25:00.369Z,55.84
2022-10-18T09:28:33.496Z,56.10
2022-10-18T09:31:48.572Z,55.87
2022-10-18T09:35:02.118Z,55.99
2022-10-18T09:38:09.177Z,57.45
2022-10-18T09:41:26.696Z,56.46
2022-10-18T09:44:36.922Z,57.07
2022-10-18T09:47:47.835Z,55.34
2022-10-18T09:51:00.700Z,54.02
2022-10-18T09:54:11.614Z,54.34
2022-10-18T09:57:21.811Z,54.09
2022-10-18T10:00:38.714Z,53.96
2022-10-18T10:03:42.503Z,54.11
2022-10-18T10:06:50.740Z,51.65
2022-10-18T10:10:08.844Z,51.32
2022-10-18T10:13:22.672Z,51.87
2022-10-18T10:16:26.914Z,50.31
2022-10-18T10:19:32.214Z,50.24
2022-10-18T10:22:37.972Z,49.56
2022-10-18T10:25:41.104Z,49.36
2022-10-18T10:28:46.303Z,49.85
2022-10-18T10:32:02.450Z,49.70
2022-10-18T10:35:35.304Z,49.85
2022-10-18T10:38:44.678Z,50.01
2022-10-18T10:41:50.822Z,50.94
2022-10-18T10:44:55.876Z,50.46
2022-10-18T10:48:08.077Z,50.07
2022-10-18T10:51:10.827Z,50.13
2022-10-18T10:54:16.581Z,50.47
2022-10-18T10:57:25.899Z,50.02
2022-10-18T11:00:37.494Z,50.51
2022-10-18T11:03:46.845Z,49.35
2022-10-18T11:06:53.940Z,50.51
2022-10-18T11:10:11.360Z,48.84
2022-10-18T11:13:41.474Z,48.74
2022-10-18T11:17:10.524Z,48.53
2022-10-18T11:20:24.732Z,49.26
2022-10-18T11:23:34.041Z,48.43
2022-10-18T11:27:02.358Z,49.08
2022-10-18T11:30:16.778Z,48.43
2022-10-18T11:33:56.425Z,48.07
2022-10-18T11:37:32.333Z,47.25
2022-10-18T11:40:40.600Z,48.06
2022-10-18T11:44:06.939Z,48.68
2022-10-18T11:47:34.393Z,46.31
2022-10-18T11:50:48.661Z,48.20
2022-10-18T11:54:08.256Z,47.31
2022-10-18T11:57:44.652Z,49.07
2022-10-18T12:00:53.348Z,48.19
2022-10-18T12:04:07.874Z,48.09
2022-10-18T12:07:14.030Z,47.54
2022-10-18T12:10:31.405Z,46.79
2022-10-18T12:14:19.270Z,47.63
2022-10-18T12:17:49.885Z,46.70
2022-10-18T12:20:58.105Z,46.51
2022-10-18T12:24:07.826Z,46.71
2022-10-18T12:27:15.159Z,46.14
2022-10-18T12:30:42.267Z,46.54
2022-10-18T12:33:48.633Z,47.00
2022-10-18T12:37:00.881Z,44.77
2022-10-18T12:40:14.554Z,45.92
2022-10-18T12:43:32.772Z,45.78
2022-10-18T12:46:54.400Z,45.05
2022-10-18T12:50:03.130Z,44.79
2022-10-18T12:53:29.749Z,44.83
2022-10-18T12:56:37.610Z,45.54
2022-10-18T12:59:41.066Z,45.67
2022-10-18T13:02:43.379Z,45.95
2022-10-18T13:05:55.711Z,46.42
2022-10-18T13:09:31.100Z,47.17
2022-10-18T13:12:50.769Z,45.37
2022-10-18T13:16:02.538Z,47.83
2022-10-18T13:19:29.633Z,46.99
2022-10-18T13:23:00.281Z,46.19
2022-10-18T13:26:31.864Z,45.80
2022-10-18T13:29:58.652Z,47.15
2022-10-18T13:33:31.643Z,45.99
2022-10-18T13:36:33.971Z,50.68
2022-10-18T13:39:37.660Z,46.48
2022-10-18T13:42:40.044Z,47.04
2022-10-18T13:45:44.702Z,47.19
2022-10-18T13:48:59.265Z,49.19
2022-10-18T13:52:34.193Z,46.48
2022-10-18T13:55:36.618Z,47.48
2022-10-18T13:59:15.119Z,47.74
2022-10-18T14:02:59.698Z,45.33
2022-10-18T14:06:15.016Z,47.03
2022-10-18T14:09:40.270Z,47.51
2022-10-18T14:12:54.038Z,47.54
2022-10-18T14:16:05.392Z,47.88
2022-10-18T14:19:26.069Z,47.32
2022-10-18T14:23:02.614Z,46.64
2022-10-18T14:26:13.117Z,46.43
2022-10-18T14:29:20.270Z,46.47
2022-10-18T14:32:28.936Z,45.95
2022-10-18T14:35:33.786Z,48.93
2022-10-18T14:38:38.561Z,47.85
2022-10-18T14:41:49.955Z,46.89
2022-10-18T14:44:54.435Z,46.78
2022-10-18T14:48:06.489Z,45.86
2022-10-18T14:51:11.288Z,46.60
2022-10-18T14:54:36.499Z,45.82
2022-10-18T14:57:38.769Z,46.99
2022-10-18T15:00:42.837Z,48.16
2022-10-18T15:03:48.102Z,48.66
2022-10-18T15:06:50.142Z,48.68
2022-10-18T15:09:53.486Z,48.22
2022-10-18T15:13:09.658Z,49.69
2022-10-18T15:16:18.322Z,48.27
2022-10-18T15:19:31.514Z,47.64
2022-10-18T15:22:34.070Z,48.00
